Time;durP1;ratioP1;P1;durP2;ratioP2;P2;SDS_P1;SDS_P2;PMS_P1;PMS_P2;Temp;Humidity;BMP_temperature;BMP_pressure;BME280_temperature;BME280_humidity;BME280_pressure;Samples;Min_cycle;Max_cycle;Signal;HPM_P1;HPM_P2
2023/07/10 00:01:26;;;;;;;24.17;17.07;;;;;;;;;;5042143;28;20188;-75
2023/07/10 00:03:52;;;;;;;23.07;17.67;;;;;;;;;;5054254;28;20237;-75
2023/07/10 00:06:18;;;;;;;21.53;17.40;;;;;;;;;;5016397;28;20273;-75
2023/07/10 00:08:44;;;;;;;24.90;18.47;;;;;;;;;;5047187;28;20206;-75
2023/07/10 00:11:16;;;;;;;24.20;17.10;;;;;;;;;;5051855;28;20233;-72
2023/07/10 00:13:42;;;;;;;23.17;18.07;;;;;;;;;;5046796;28;20187;-72
2023/07/10 00:16:13;;;;;;;23.60;17.37;;;;;;;;;;5029987;28;20242;-72
2023/07/10 00:18:39;;;;;;;25.10;17.93;;;;;;;;;;5042783;28;20179;-72
2023/07/10 00:21:05;;;;;;;22.90;16.50;;;;;;;;;;5036458;28;20246;-73
2023/07/10 00:23:31;;;;;;;24.27;17.87;;;;;;;;;;5047284;28;20235;-72
2023/07/10 00:25:57;;;;;;;23.87;16.93;;;;;;;;;;5016371;28;20280;-72
2023/07/10 00:28:23;;;;;;;21.57;16.43;;;;;;;;;;5025630;28;20200;-75
2023/07/10 00:30:50;;;;;;;22.77;16.23;;;;;;;;;;5031673;28;20186;-75
2023/07/10 00:33:17;;;;;;;21.20;15.87;;;;;;;;;;5056575;28;20180;-75
2023/07/10 00:35:43;;;;;;;22.53;16.07;;;;;;;;;;5019453;28;20184;-75
2023/07/10 00:38:17;;;;;;;24.27;16.63;;;;;;;;;;5069499;28;20179;-75
2023/07/10 00:40:46;;;;;;;23.03;16.03;;;;;;;;;;5032728;28;20303;-75
2023/07/10 00:43:18;;;;;;;21.03;16.37;;;;;;;;;;5046874;28;20210;-75
2023/07/10 00:45:44;;;;;;;22.43;16.87;;;;;;;;;;5048437;28;20230;-83
2023/07/10 00:48:19;;;;;;;20.67;15.77;;;;;;;;;;5023268;28;20215;-83
2023/07/10 00:50:45;;;;;;;21.10;15.63;;;;;;;;;;5049779;28;20254;-82
2023/07/10 00:53:21;;;;;;;21.47;15.63;;;;;;;;;;5043868;28;20236;-83
2023/07/10 00:55:47;;;;;;;19.53;14.47;;;;;;;;;;5033434;28;20191;-83
2023/07/10 00:58:14;;;;;;;17.63;14.13;;;;;;;;;;5042578;28;20187;-84
2023/07/10 01:00:40;;;;;;;21.73;14.60;;;;;;;;;;5036509;28;20187;-72
2023/07/10 01:03:09;;;;;;;18.43;13.73;;;;;;;;;;5032476;28;20215;-72
2023/07/10 01:05:36;;;;;;;19.87;13.50;;;;;;;;;;5048330;28;20186;-72
2023/07/10 01:08:02;;;;;;;19.23;13.20;;;;;;;;;;5014022;28;20197;-72
2023/07/10 01:10:28;;;;;;;20.40;13.57;;;;;;;;;;5023498;28;20275;-73
2023/07/10 01:12:54;;;;;;;19.30;12.83;;;;;;;;;;5050056;28;20263;-74
2023/07/10 01:15:20;;;;;;;18.13;12.83;;;;;;;;;;5025616;28;20184;-74
2023/07/10 01:17:47;;;;;;;16.50;12.20;;;;;;;;;;5062584;28;20329;-76
2023/07/10 01:20:19;;;;;;;16.13;12.23;;;;;;;;;;5075998;28;20302;-77
2023/07/10 01:22:45;;;;;;;17.33;12.63;;;;;;;;;;5039477;28;20184;-77
2023/07/10 01:25:11;;;;;;;16.57;12.90;;;;;;;;;;5005870;28;20181;-77
2023/07/10 01:27:38;;;;;;;19.90;13.00;;;;;;;;;;5027838;28;20198;-77
2023/07/10 01:30:06;;;;;;;16.60;12.47;;;;;;;;;;5032775;28;20220;-77
2023/07/10 01:32:32;;;;;;;19.93;12.77;;;;;;;;;;5038734;28;20180;-77
2023/07/10 01:35:02;;;;;;;22.97;13.63;;;;;;;;;;5058610;28;20184;-84
2023/07/10 01:37:28;;;;;;;17.70;13.53;;;;;;;;;;5058713;28;20181;-84
2023/07/10 01:39:54;;;;;;;20.73;14.07;;;;;;;;;;5048824;28;20180;-84
2023/07/10 01:42:21;;;;;;;15.63;13.90;;;;;;;;;;5023181;28;20199;-84
2023/07/10 01:44:48;;;;;;;16.90;13.63;;;;;;;;;;5042059;28;20206;-84
2023/07/10 01:47:15;;;;;;;17.63;14.23;;;;;;;;;;5041994;28;20184;-84
2023/07/10 01:50:01;;;;;;;18.23;15.03;;;;;;;;;;5027583;28;20212;-84
2023/07/10 01:52:30;;;;;;;16.57;13.50;;;;;;;;;;5038543;28;20242;-83
2023/07/10 01:54:56;;;;;;;20.63;14.60;;;;;;;;;;5022834;28;20184;-83
2023/07/10 01:57:23;;;;;;;20.00;14.43;;;;;;;;;;5010163;28;20184;-82
2023/07/10 01:59:49;;;;;;;16.43;14.13;;;;;;;;;;5039530;28;20190;-83
2023/07/10 02:02:16;;;;;;;18.57;13.17;;;;;;;;;;5034190;28;20184;-83
2023/07/10 02:04:41;;;;;;;18.57;13.47;;;;;;;;;;5042167;28;20198;-82
2023/07/10 02:07:07;;;;;;;17.10;13.00;;;;;;;;;;5030990;28;20199;-76
2023/07/10 02:09:34;;;;;;;18.13;13.30;;;;;;;;;;5038859;28;20258;-76
2023/07/10 02:12:00;;;;;;;19.40;12.77;;;;;;;;;;5026945;28;20242;-76
2023/07/10 02:14:26;;;;;;;16.87;12.40;;;;;;;;;;5027147;28;20215;-76
2023/07/10 02:16:52;;;;;;;15.97;12.63;;;;;;;;;;5024909;28;20183;-76
2023/07/10 02:19:19;;;;;;;18.87;12.87;;;;;;;;;;5076094;28;20245;-76
2023/07/10 02:21:45;;;;;;;15.17;12.37;;;;;;;;;;5057072;28;20183;-76
2023/07/10 02:24:11;;;;;;;16.27;12.57;;;;;;;;;;5056955;28;20183;-76
2023/07/10 02:26:37;;;;;;;18.30;12.60;;;;;;;;;;5038126;28;20295;-75
2023/07/10 02:29:04;;;;;;;16.00;12.17;;;;;;;;;;5041832;28;20294;-75
2023/07/10 02:31:30;;;;;;;14.47;12.33;;;;;;;;;;5031032;28;20183;-75
2023/07/10 02:33:56;;;;;;;16.53;11.43;;;;;;;;;;5036681;28;20211;-75
2023/07/10 02:36:22;;;;;;;18.23;11.27;;;;;;;;;;5038285;28;20207;-75
2023/07/10 02:38:48;;;;;;;16.77;10.83;;;;;;;;;;5023905;28;20199;-75
2023/07/10 02:41:14;;;;;;;15.47;11.23;;;;;;;;;;5038577;28;20314;-83
2023/07/10 02:43:40;;;;;;;15.60;10.97;;;;;;;;;;5035857;28;20189;-83
2023/07/10 02:46:06;;;;;;;13.20;11.30;;;;;;;;;;5037187;28;20271;-83
2023/07/10 02:48:32;;;;;;;14.90;10.40;;;;;;;;;;5037022;28;20271;-83
2023/07/10 02:51:00;;;;;;;15.63;10.07;;;;;;;;;;5039568;28;20200;-83
2023/07/10 02:53:27;;;;;;;15.17;10.37;;;;;;;;;;5045312;28;20220;-83
2023/07/10 02:55:53;;;;;;;12.30;9.00;;;;;;;;;;5020941;28;20184;-83
2023/07/10 02:58:19;;;;;;;12.73;8.83;;;;;;;;;;5056714;28;20192;-73
2023/07/10 03:00:45;;;;;;;11.97;8.17;;;;;;;;;;5037894;28;20265;-73
2023/07/10 03:03:11;;;;;;;10.43;7.90;;;;;;;;;;5031633;28;20227;-73
2023/07/10 03:05:37;;;;;;;11.83;7.50;;;;;;;;;;5034331;28;20192;-73
2023/07/10 03:08:03;;;;;;;12.03;7.30;;;;;;;;;;5012078;28;20192;-73
2023/07/10 03:10:29;;;;;;;12.43;6.97;;;;;;;;;;5045335;28;20194;-73
2023/07/10 03:12:55;;;;;;;11.23;7.37;;;;;;;;;;5024604;28;20188;-73
2023/07/10 03:15:22;;;;;;;11.00;6.33;;;;;;;;;;5017634;28;20200;-75
2023/07/10 03:17:48;;;;;;;9.93;6.00;;;;;;;;;;5025483;28;20188;-75
2023/07/10 03:20:14;;;;;;;9.77;5.70;;;;;;;;;;5019581;28;20214;-75
2023/07/10 03:22:40;;;;;;;10.33;5.60;;;;;;;;;;5025429;28;20274;-75
2023/07/10 03:25:06;;;;;;;10.37;5.97;;;;;;;;;;5001773;28;20189;-76
2023/07/10 03:27:32;;;;;;;8.33;5.43;;;;;;;;;;5017807;28;20270;-76
2023/07/10 03:29:59;;;;;;;7.83;4.97;;;;;;;;;;5044688;28;20274;-76
2023/07/10 03:32:25;;;;;;;7.83;4.57;;;;;;;;;;5040119;28;20245;-76
2023/07/10 03:34:51;;;;;;;10.03;5.03;;;;;;;;;;5063280;28;20267;-76
2023/07/10 03:37:17;;;;;;;6.70;4.30;;;;;;;;;;5014501;28;20184;-75
2023/07/10 03:39:43;;;;;;;6.90;4.10;;;;;;;;;;5034744;28;20185;-75
2023/07/10 03:42:11;;;;;;;7.43;4.20;;;;;;;;;;5023283;28;20188;-75
2023/07/10 03:44:37;;;;;;;7.27;4.40;;;;;;;;;;5034494;28;20188;-76
2023/07/10 03:47:03;;;;;;;6.97;4.30;;;;;;;;;;5034736;28;20189;-75
2023/07/10 03:49:30;;;;;;;7.63;3.77;;;;;;;;;;5055527;28;20221;-75
2023/07/10 03:51:56;;;;;;;6.97;4.17;;;;;;;;;;5039859;28;20213;-75
2023/07/10 03:54:22;;;;;;;5.70;3.53;;;;;;;;;;5045625;28;20231;-76
2023/07/10 03:56:48;;;;;;;5.80;3.70;;;;;;;;;;5036541;28;20222;-75
2023/07/10 03:59:13;;;;;;;5.60;3.93;;;;;;;;;;5037160;28;20223;-76
2023/07/10 04:01:40;;;;;;;5.53;3.73;;;;;;;;;;5033716;28;20192;-75
2023/07/10 04:04:06;;;;;;;6.53;4.07;;;;;;;;;;5027257;28;20191;-83
2023/07/10 04:06:32;;;;;;;7.67;3.67;;;;;;;;;;5053699;23;20234;-83
2023/07/10 04:08:59;;;;;;;8.07;4.30;;;;;;;;;;5040648;28;20222;-83
2023/07/10 04:11:26;;;;;;;6.80;4.27;;;;;;;;;;5038836;28;20180;-83
2023/07/10 04:13:52;;;;;;;5.83;3.87;;;;;;;;;;5060110;28;20233;-83
2023/07/10 04:16:22;;;;;;;7.10;4.53;;;;;;;;;;5039265;28;20251;-83
2023/07/10 04:18:49;;;;;;;7.20;4.40;;;;;;;;;;5056687;28;20190;-83
2023/07/10 04:21:16;;;;;;;7.43;4.57;;;;;;;;;;5056059;28;20219;-73
2023/07/10 04:23:43;;;;;;;7.87;4.20;;;;;;;;;;5073948;28;20226;-73
2023/07/10 04:26:28;;;;;;;8.23;4.10;;;;;;;;;;5056125;28;20193;-73
2023/07/10 04:28:55;;;;;;;8.50;4.60;;;;;;;;;;5050993;28;20203;-73
2023/07/10 04:31:22;;;;;;;6.67;4.20;;;;;;;;;;5073313;28;20183;-73
2023/07/10 04:33:49;;;;;;;7.03;4.13;;;;;;;;;;5073674;28;20187;-73
2023/07/10 04:36:15;;;;;;;6.90;4.03;;;;;;;;;;5056153;28;20183;-74
2023/07/10 04:38:41;;;;;;;8.03;4.20;;;;;;;;;;5037760;28;20206;-76
2023/07/10 04:41:10;;;;;;;7.23;4.37;;;;;;;;;;5037154;28;20203;-76
2023/07/10 04:43:36;;;;;;;7.97;4.13;;;;;;;;;;5058678;28;20214;-77
2023/07/10 04:46:03;;;;;;;9.17;4.00;;;;;;;;;;5059617;28;20195;-76
2023/07/10 04:48:30;;;;;;;7.07;4.00;;;;;;;;;;5065685;28;20203;-76
2023/07/10 04:50:58;;;;;;;6.37;3.90;;;;;;;;;;5073455;28;20244;-77
2023/07/10 04:53:24;;;;;;;10.40;4.40;;;;;;;;;;5058297;28;20206;-85
2023/07/10 04:55:51;;;;;;;6.33;4.10;;;;;;;;;;5061249;28;20254;-86
2023/07/10 04:58:18;;;;;;;8.87;4.50;;;;;;;;;;5059290;28;20187;-85
2023/07/10 05:00:44;;;;;;;8.40;4.30;;;;;;;;;;5047976;28;20270;-86
2023/07/10 05:03:10;;;;;;;7.77;4.00;;;;;;;;;;5039715;28;20207;-85
2023/07/10 05:05:36;;;;;;;6.37;3.93;;;;;;;;;;5054216;28;20223;-86
2023/07/10 05:08:03;;;;;;;8.57;4.03;;;;;;;;;;5056926;28;20187;-86
2023/07/10 05:10:36;;;;;;;5.43;3.87;;;;;;;;;;5060215;28;20209;-86
2023/07/10 05:13:02;;;;;;;6.30;4.20;;;;;;;;;;5058770;28;20179;-85
2023/07/10 05:15:28;;;;;;;7.87;3.83;;;;;;;;;;5040475;28;20186;-86
2023/07/10 05:17:54;;;;;;;8.13;4.27;;;;;;;;;;5042340;28;20187;-85
2023/07/10 05:20:20;;;;;;;5.93;4.03;;;;;;;;;;5041378;28;20226;-85
2023/07/10 05:22:46;;;;;;;6.30;4.30;;;;;;;;;;5056560;28;20295;-85
2023/07/10 05:25:13;;;;;;;8.50;4.67;;;;;;;;;;5023246;28;20216;-85
2023/07/10 05:27:39;;;;;;;9.37;4.23;;;;;;;;;;5034131;28;20180;-77
2023/07/10 05:30:05;;;;;;;6.53;3.97;;;;;;;;;;5070325;28;20206;-77
2023/07/10 05:32:31;;;;;;;6.40;3.77;;;;;;;;;;5077389;28;20180;-77
2023/07/10 05:34:57;;;;;;;7.30;4.07;;;;;;;;;;5050040;28;20191;-77
2023/07/10 05:37:26;;;;;;;8.87;4.27;;;;;;;;;;5046912;28;20180;-77
2023/07/10 05:39:52;;;;;;;7.23;3.77;;;;;;;;;;5059736;28;20286;-77
2023/07/10 05:42:18;;;;;;;7.27;4.10;;;;;;;;;;5077022;28;20179;-77
2023/07/10 05:44:44;;;;;;;6.57;4.30;;;;;;;;;;5059808;28;20191;-73
2023/07/10 05:47:10;;;;;;;6.83;3.67;;;;;;;;;;5059478;28;20207;-73
2023/07/10 05:49:36;;;;;;;7.73;4.20;;;;;;;;;;5042603;28;20250;-73
2023/07/10 05:52:02;;;;;;;6.53;3.80;;;;;;;;;;5026603;28;20184;-73
2023/07/10 05:54:28;;;;;;;8.47;4.00;;;;;;;;;;5049555;28;20176;-73
2023/07/10 05:56:54;;;;;;;7.43;3.80;;;;;;;;;;5033545;28;20214;-74
2023/07/10 05:59:20;;;;;;;6.37;3.80;;;;;;;;;;5039086;28;20188;-73
2023/07/10 06:01:46;;;;;;;9.17;3.60;;;;;;;;;;5035936;28;20300;-77
2023/07/10 06:04:12;;;;;;;7.30;3.60;;;;;;;;;;5041918;28;20194;-77
2023/07/10 06:06:39;;;;;;;6.63;3.60;;;;;;;;;;5058539;28;20237;-76
2023/07/10 06:09:05;;;;;;;7.43;3.30;;;;;;;;;;5058915;28;20203;-77
2023/07/10 06:11:31;;;;;;;8.67;3.60;;;;;;;;;;5042479;28;20209;-77
2023/07/10 06:13:57;;;;;;;6.63;3.30;;;;;;;;;;5058936;28;20211;-77
2023/07/10 06:16:23;;;;;;;5.37;3.33;;;;;;;;;;5076330;28;20269;-76
2023/07/10 06:18:49;;;;;;;7.33;3.63;;;;;;;;;;5058404;28;20194;-76
2023/07/10 06:21:15;;;;;;;9.43;3.83;;;;;;;;;;5057967;28;20180;-76
2023/07/10 06:23:41;;;;;;;11.93;3.80;;;;;;;;;;5075776;28;20179;-76
2023/07/10 06:26:07;;;;;;;6.43;4.00;;;;;;;;;;5075834;28;20179;-76
2023/07/10 06:28:34;;;;;;;7.47;4.10;;;;;;;;;;5057606;28;20203;-76
2023/07/10 06:31:01;;;;;;;7.90;3.80;;;;;;;;;;5057753;28;20202;-77
2023/07/10 06:33:28;;;;;;;10.20;4.00;;;;;;;;;;5075829;28;20203;-86
2023/07/10 06:35:55;;;;;;;7.13;3.87;;;;;;;;;;5059129;28;20194;-83
2023/07/10 06:38:21;;;;;;;6.33;3.83;;;;;;;;;;5041364;28;20183;-83
2023/07/10 06:40:50;;;;;;;10.20;3.97;;;;;;;;;;5058955;28;20202;-83
2023/07/10 06:43:17;;;;;;;8.40;3.83;;;;;;;;;;5045357;28;20199;-83
2023/07/10 06:45:43;;;;;;;8.63;3.80;;;;;;;;;;5045276;28;20184;-83
2023/07/10 06:48:10;;;;;;;6.77;3.43;;;;;;;;;;5054901;28;20228;-83
2023/07/10 06:50:36;;;;;;;6.63;3.63;;;;;;;;;;5056539;28;20221;-74
2023/07/10 06:53:02;;;;;;;8.30;3.50;;;;;;;;;;5043276;28;20175;-74
2023/07/10 06:55:28;;;;;;;9.10;3.50;;;;;;;;;;5047580;28;20180;-74
2023/07/10 06:57:54;;;;;;;6.13;2.87;;;;;;;;;;5033776;28;20253;-74
2023/07/10 07:00:20;;;;;;;11.23;3.40;;;;;;;;;;5055690;28;20347;-74
2023/07/10 07:02:47;;;;;;;7.40;2.97;;;;;;;;;;5055868;28;20275;-73
2023/07/10 07:05:13;;;;;;;7.10;3.30;;;;;;;;;;5055225;28;20183;-74
2023/07/10 07:07:39;;;;;;;6.83;2.67;;;;;;;;;;5056596;28;20241;-83
2023/07/10 07:10:08;;;;;;;6.63;2.53;;;;;;;;;;5074986;28;20234;-82
2023/07/10 07:12:34;;;;;;;9.87;2.80;;;;;;;;;;5075163;28;20193;-82
2023/07/10 07:15:00;;;;;;;8.37;2.83;;;;;;;;;;5057092;28;20214;-83
2023/07/10 07:17:26;;;;;;;7.27;2.67;;;;;;;;;;5040665;28;20210;-83
2023/07/10 07:19:52;;;;;;;7.80;2.37;;;;;;;;;;5057077;28;20179;-83
2023/07/10 07:22:18;;;;;;;10.53;2.90;;;;;;;;;;5041127;28;20179;-83
2023/07/10 07:24:44;;;;;;;6.87;2.27;;;;;;;;;;5057727;28;20187;-74
2023/07/10 07:27:10;;;;;;;6.23;2.50;;;;;;;;;;5057026;28;20175;-74
2023/07/10 07:29:36;;;;;;;10.37;2.60;;;;;;;;;;5056726;28;20218;-74
2023/07/10 07:32:03;;;;;;;7.83;2.63;;;;;;;;;;5040425;28;20184;-74
2023/07/10 07:34:29;;;;;;;7.93;2.43;;;;;;;;;;5056607;28;20262;-74
2023/07/10 07:36:55;;;;;;;8.47;2.33;;;;;;;;;;5057039;28;20253;-74
2023/07/10 07:39:21;;;;;;;4.90;2.20;;;;;;;;;;5056457;28;20186;-74
2023/07/10 07:41:47;;;;;;;10.00;2.60;;;;;;;;;;5056714;28;20270;-77
2023/07/10 07:44:13;;;;;;;6.63;2.40;;;;;;;;;;5073985;28;20434;-77
2023/07/10 07:46:39;;;;;;;6.97;2.45;;;;;;;;;;5074008;28;20417;-77
2023/07/10 07:49:06;;;;;;;8.63;2.60;;;;;;;;;;5074514;28;20278;-77
2023/07/10 07:51:32;;;;;;;6.17;2.20;;;;;;;;;;5074647;28;20198;-77
2023/07/10 07:54:05;;;;;;;7.43;2.53;;;;;;;;;;5056463;28;20198;-77
2023/07/10 07:56:31;;;;;;;5.87;2.30;;;;;;;;;;5074227;28;20163;-77
2023/07/10 07:58:57;;;;;;;8.20;2.40;;;;;;;;;;5056365;28;20175;-77
2023/07/10 08:01:23;;;;;;;7.00;2.40;;;;;;;;;;5039975;28;20213;-77
2023/07/10 08:03:49;;;;;;;8.00;2.40;;;;;;;;;;5056247;28;20179;-77
2023/07/10 08:06:15;;;;;;;6.63;2.00;;;;;;;;;;5039505;28;20258;-77
2023/07/10 08:08:41;;;;;;;6.33;2.33;;;;;;;;;;5056189;28;20215;-77
2023/07/10 08:11:08;;;;;;;7.03;2.30;;;;;;;;;;5056013;28;20202;-77
2023/07/10 08:13:34;;;;;;;7.43;2.23;;;;;;;;;;5056075;28;20167;-74
2023/07/10 08:16:00;;;;;;;9.03;2.20;;;;;;;;;;5055989;28;20187;-74
2023/07/10 08:18:26;;;;;;;6.55;2.45;;;;;;;;;;5056315;28;20186;-74
2023/07/10 08:20:59;;;;;;;8.88;2.60;;;;;;;;;;5073689;28;20179;-74
2023/07/10 08:23:25;;;;;;;7.43;2.45;;;;;;;;;;5055973;28;20190;-74
2023/07/10 08:25:51;;;;;;;6.78;2.40;;;;;;;;;;5039360;28;20185;-74
2023/07/10 08:28:17;;;;;;;7.18;2.22;;;;;;;;;;5039542;28;20183;-75
2023/07/10 08:30:44;;;;;;;8.15;2.33;;;;;;;;;;5039723;28;20171;-74
2023/07/10 08:33:10;;;;;;;6.65;2.15;;;;;;;;;;5039448;28;20179;-75
2023/07/10 08:35:37;;;;;;;8.98;2.50;;;;;;;;;;5056296;28;20249;-75
2023/07/10 08:38:03;;;;;;;8.98;2.60;;;;;;;;;;5039300;28;20179;-77
2023/07/10 08:40:37;;;;;;;6.35;2.30;;;;;;;;;;5055677;28;20180;-77
2023/07/10 08:43:22;;;;;;;6.78;2.67;;;;;;;;;;5055556;28;20270;-77
2023/07/10 08:45:48;;;;;;;8.63;2.33;;;;;;;;;;5073775;28;20206;-77
2023/07/10 08:48:30;;;;;;;7.90;2.60;;;;;;;;;;5073507;28;20185;-77
2023/07/10 08:51:03;;;;;;;6.05;2.28;;;;;;;;;;5055937;28;20171;-78
2023/07/10 08:53:32;;;;;;;7.25;2.60;;;;;;;;;;5073616;28;20270;-78
2023/07/10 08:55:58;;;;;;;7.85;2.40;;;;;;;;;;5055580;28;20203;-78
2023/07/10 08:58:27;;;;;;;7.15;2.20;;;;;;;;;;5049487;28;20218;-78
2023/07/10 09:00:57;;;;;;;8.23;2.42;;;;;;;;;;5053174;28;20203;-78
2023/07/10 09:03:46;;;;;;;6.75;2.30;;;;;;;;;;5035505;28;20183;-78
2023/07/10 09:06:21;;;;;;;7.63;2.53;;;;;;;;;;5053122;28;20226;-78
2023/07/10 09:08:51;;;;;;;5.00;2.25;;;;;;;;;;5034453;28;20214;-78
2023/07/10 09:11:18;;;;;;;8.63;2.60;;;;;;;;;;5035432;28;20169;-78
2023/07/10 09:13:47;;;;;;;8.43;2.50;;;;;;;;;;5053162;28;20168;-78
2023/07/10 09:16:18;;;;;;;6.30;2.58;;;;;;;;;;5035482;28;20176;-78
2023/07/10 09:18:49;;;;;;;9.90;2.35;;;;;;;;;;5035430;28;20233;-78
2023/07/10 09:21:18;;;;;;;5.85;2.38;;;;;;;;;;5053434;28;20183;-86
2023/07/10 09:23:45;;;;;;;6.05;2.60;;;;;;;;;;5036727;28;20317;-84
2023/07/10 09:26:13;;;;;;;8.98;2.60;;;;;;;;;;5036323;28;20273;-86
2023/07/10 09:28:40;;;;;;;6.65;2.70;;;;;;;;;;5056412;28;20196;-86
2023/07/10 09:31:09;;;;;;;6.97;2.47;;;;;;;;;;5058316;28;20206;-86
2023/07/10 09:33:42;;;;;;;8.25;2.63;;;;;;;;;;5058813;28;20236;-86
2023/07/10 09:36:13;;;;;;;6.32;2.20;;;;;;;;;;5041216;28;20176;-85
2023/07/10 09:38:42;;;;;;;7.03;2.38;;;;;;;;;;5039368;28;20271;-77
2023/07/10 09:41:19;;;;;;;7.10;2.65;;;;;;;;;;5039068;28;20195;-77
2023/07/10 09:44:11;;;;;;;9.15;2.40;;;;;;;;;;5039096;28;20214;-77
2023/07/10 09:46:38;;;;;;;5.85;2.47;;;;;;;;;;5035268;28;20194;-78
2023/07/10 09:49:10;;;;;;;5.15;2.10;;;;;;;;;;5056425;28;20199;-78
2023/07/10 09:51:36;;;;;;;7.30;2.33;;;;;;;;;;5056388;28;20164;-78
2023/07/10 09:54:06;;;;;;;7.35;2.35;;;;;;;;;;5038731;28;20182;-78
2023/07/10 09:56:35;;;;;;;5.72;2.20;;;;;;;;;;5056513;28;20164;-78
2023/07/10 09:59:01;;;;;;;8.02;2.45;;;;;;;;;;5038752;28;20191;-78
2023/07/10 10:01:28;;;;;;;8.45;2.20;;;;;;;;;;5038704;28;20179;-78
2023/07/10 10:03:54;;;;;;;5.82;2.20;;;;;;;;;;5038544;28;20211;-78
2023/07/10 10:06:26;;;;;;;6.28;2.28;;;;;;;;;;5038689;28;20223;-78
2023/07/10 10:08:52;;;;;;;7.10;2.33;;;;;;;;;;5038266;28;20211;-79
2023/07/10 10:11:28;;;;;;;7.25;2.30;;;;;;;;;;5038889;28;20172;-86
2023/07/10 10:13:56;;;;;;;7.60;2.70;;;;;;;;;;5055907;28;20404;-86
2023/07/10 10:16:25;;;;;;;5.55;2.03;;;;;;;;;;5039184;28;20168;-86
2023/07/10 10:18:58;;;;;;;6.45;2.45;;;;;;;;;;5039728;28;20183;-87
2023/07/10 10:21:24;;;;;;;7.15;2.40;;;;;;;;;;5039492;28;20280;-86
2023/07/10 10:23:52;;;;;;;5.68;2.30;;;;;;;;;;5039677;28;20186;-86
2023/07/10 10:26:18;;;;;;;7.07;2.33;;;;;;;;;;5039113;28;20187;-86
2023/07/10 10:28:47;;;;;;;7.25;2.67;;;;;;;;;;5038595;28;20302;-78
2023/07/10 10:31:17;;;;;;;6.50;2.20;;;;;;;;;;5038203;28;20258;-78
2023/07/10 10:33:43;;;;;;;5.10;2.10;;;;;;;;;;5038832;28;20176;-78
2023/07/10 10:36:27;;;;;;;8.85;2.10;;;;;;;;;;5056205;28;20225;-78
2023/07/10 10:38:58;;;;;;;5.43;2.08;;;;;;;;;;5055753;28;20245;-78
2023/07/10 10:41:43;;;;;;;7.93;2.10;;;;;;;;;;5038668;28;20180;-78
2023/07/10 10:44:15;;;;;;;5.25;1.90;;;;;;;;;;5055915;28;20176;-87
2023/07/10 10:46:41;;;;;;;4.78;1.90;;;;;;;;;;5039288;28;20180;-87
2023/07/10 10:49:30;;;;;;;4.18;1.95;;;;;;;;;;5041304;28;20200;-87
2023/07/10 10:52:20;;;;;;;6.25;2.90;;;;;;;;;;5004295;28;20176;-87
2023/07/10 10:55:12;;;;;;;5.65;2.42;;;;;;;;;;5028323;28;20271;-87
2023/07/10 10:57:46;;;;;;;5.32;2.10;;;;;;;;;;5053000;28;20180;-87
2023/07/10 11:00:21;;;;;;;8.02;2.33;;;;;;;;;;5057321;28;20171;-78
2023/07/10 11:03:16;;;;;;;4.57;2.10;;;;;;;;;;5037728;28;20278;-78
2023/07/10 11:05:45;;;;;;;3.33;2.10;;;;;;;;;;5020563;28;20184;-78
2023/07/10 11:08:14;;;;;;;5.90;2.22;;;;;;;;;;5055042;28;20198;-78
2023/07/10 11:10:41;;;;;;;6.80;2.15;;;;;;;;;;5037421;28;20199;-78
2023/07/10 11:13:15;;;;;;;8.55;2.50;;;;;;;;;;5020888;28;20237;-78
2023/07/10 11:15:41;;;;;;;7.80;2.50;;;;;;;;;;5054891;28;20172;-78
2023/07/10 11:18:10;;;;;;;6.95;2.35;;;;;;;;;;5055574;28;20183;-87
2023/07/10 11:20:36;;;;;;;6.85;2.88;;;;;;;;;;5040149;28;20173;-87
2023/07/10 11:23:05;;;;;;;9.32;2.33;;;;;;;;;;5041145;28;20176;-87
2023/07/10 11:25:35;;;;;;;7.38;2.38;;;;;;;;;;5024396;28;20180;-87
2023/07/10 11:28:03;;;;;;;8.05;2.22;;;;;;;;;;5057613;28;20176;-87
2023/07/10 11:30:31;;;;;;;7.80;2.40;;;;;;;;;;5039303;28;20196;-88
2023/07/10 11:33:05;;;;;;;8.73;2.45;;;;;;;;;;5039241;28;20168;-87
2023/07/10 11:35:32;;;;;;;8.65;2.40;;;;;;;;;;5054851;28;20176;-78
2023/07/10 11:38:04;;;;;;;5.47;2.45;;;;;;;;;;5036995;28;20176;-78
2023/07/10 11:40:30;;;;;;;6.72;2.60;;;;;;;;;;5037221;28;20182;-78
2023/07/10 11:42:57;;;;;;;8.57;2.40;;;;;;;;;;5036740;28;20179;-78
2023/07/10 11:45:26;;;;;;;5.63;1.98;;;;;;;;;;5037101;28;20273;-78
2023/07/10 11:47:52;;;;;;;7.95;2.90;;;;;;;;;;5036705;28;20176;-79
2023/07/10 11:50:25;;;;;;;6.65;2.22;;;;;;;;;;5019731;28;20688;-78
2023/07/10 11:53:10;;;;;;;7.93;2.20;;;;;;;;;;5036598;28;20176;-77
2023/07/10 11:55:56;;;;;;;8.75;2.53;;;;;;;;;;5054341;28;20203;-76
2023/07/10 11:58:29;;;;;;;6.90;2.47;;;;;;;;;;5054184;28;20172;-76
2023/07/10 12:01:02;;;;;;;5.38;2.17;;;;;;;;;;5054356;28;20168;-76
2023/07/10 12:03:30;;;;;;;7.85;2.80;;;;;;;;;;5036834;28;20259;-76
2023/07/10 12:05:56;;;;;;;7.00;2.55;;;;;;;;;;5054712;28;20212;-76
2023/07/10 12:08:23;;;;;;;6.90;2.50;;;;;;;;;;5039684;28;20179;-85
2023/07/10 12:10:50;;;;;;;7.97;2.20;;;;;;;;;;5039259;28;20180;-86
2023/07/10 12:13:25;;;;;;;9.77;2.72;;;;;;;;;;5038808;28;20176;-86
2023/07/10 12:15:53;;;;;;;5.47;2.50;;;;;;;;;;5056455;28;20234;-84
2023/07/10 12:18:21;;;;;;;10.25;2.75;;;;;;;;;;5055760;28;20247;-86
2023/07/10 12:20:51;;;;;;;7.95;2.30;;;;;;;;;;5037403;28;20176;-86
2023/07/10 12:23:18;;;;;;;9.30;2.72;;;;;;;;;;5038163;28;20255;-86
2023/07/10 12:25:48;;;;;;;9.35;2.35;;;;;;;;;;5036308;28;20168;-79
2023/07/10 12:28:15;;;;;;;7.53;2.65;;;;;;;;;;5035966;28;20229;-77
2023/07/10 12:30:41;;;;;;;11.40;2.75;;;;;;;;;;5035959;28;20213;-76
2023/07/10 12:33:26;;;;;;;8.85;2.53;;;;;;;;;;5035973;28;20175;-76
2023/07/10 12:35:52;;;;;;;5.95;2.50;;;;;;;;;;5035923;28;20241;-76
2023/07/10 12:38:18;;;;;;;5.70;2.20;;;;;;;;;;5019680;28;20175;-76
2023/07/10 12:40:44;;;;;;;7.72;2.53;;;;;;;;;;5054796;28;20187;-85
2023/07/10 12:43:24;;;;;;;6.97;2.58;;;;;;;;;;5025212;28;20180;-86
2023/07/10 12:46:00;;;;;;;7.13;2.13;;;;;;;;;;5038080;28;20183;-86
2023/07/10 12:48:31;;;;;;;6.68;2.17;;;;;;;;;;5021586;28;20183;-86
2023/07/10 12:51:00;;;;;;;9.07;2.40;;;;;;;;;;5040446;28;20244;-86
2023/07/10 12:53:31;;;;;;;10.30;2.45;;;;;;;;;;5040999;28;20179;-86
2023/07/10 12:56:03;;;;;;;7.10;2.25;;;;;;;;;;5058796;28;20164;-86
2023/07/10 12:58:29;;;;;;;6.47;2.03;;;;;;;;;;5054627;28;20202;-77
2023/07/10 13:01:00;;;;;;;8.20;2.13;;;;;;;;;;5053496;28;20199;-77
2023/07/10 13:03:28;;;;;;;8.93;2.55;;;;;;;;;;5037266;28;20230;-77
2023/07/10 13:05:57;;;;;;;5.80;1.98;;;;;;;;;;5039330;28;20222;-77
2023/07/10 13:08:24;;;;;;;4.93;2.22;;;;;;;;;;5057411;28;20180;-77
2023/07/10 13:10:52;;;;;;;6.93;2.15;;;;;;;;;;5057091;28;20168;-78
2023/07/10 13:13:19;;;;;;;6.82;2.35;;;;;;;;;;5057113;28;20208;-77
2023/07/10 13:15:46;;;;;;;6.50;2.13;;;;;;;;;;5057176;28;20180;-78
2023/07/10 13:18:26;;;;;;;6.90;2.40;;;;;;;;;;5057110;28;20218;-77
2023/07/10 13:20:52;;;;;;;8.00;2.35;;;;;;;;;;5039334;28;20175;-77
2023/07/10 13:23:18;;;;;;;8.05;2.30;;;;;;;;;;5039307;28;20266;-77
2023/07/10 13:25:44;;;;;;;5.35;2.20;;;;;;;;;;5057165;28;20168;-77
2023/07/10 13:28:16;;;;;;;5.90;2.13;;;;;;;;;;5057465;28;20168;-77
2023/07/10 13:30:42;;;;;;;8.20;2.47;;;;;;;;;;5057102;28;20203;-74
2023/07/10 13:33:18;;;;;;;6.38;2.20;;;;;;;;;;5022929;28;20229;-74
2023/07/10 13:35:46;;;;;;;6.25;2.15;;;;;;;;;;5039293;28;20232;-74
2023/07/10 13:38:12;;;;;;;8.82;2.60;;;;;;;;;;5039378;28;20235;-75
2023/07/10 13:40:39;;;;;;;8.60;2.20;;;;;;;;;;5057159;28;20175;-75
2023/07/10 13:43:10;;;;;;;6.38;2.47;;;;;;;;;;5022745;28;20230;-74
2023/07/10 13:45:36;;;;;;;5.15;1.83;;;;;;;;;;5039546;28;20204;-74
2023/07/10 13:48:08;;;;;;;3.83;1.95;;;;;;;;;;5038838;28;20265;-74
2023/07/10 13:50:34;;;;;;;5.93;2.05;;;;;;;;;;5038880;28;20204;-74
2023/07/10 13:53:00;;;;;;;7.43;2.17;;;;;;;;;;5039502;28;20186;-74
2023/07/10 13:55:26;;;;;;;6.00;2.20;;;;;;;;;;5022617;28;20230;-74
2023/07/10 13:57:52;;;;;;;9.30;2.58;;;;;;;;;;5039472;28;20203;-74
2023/07/10 14:00:18;;;;;;;5.30;2.05;;;;;;;;;;5022519;28;20184;-75
2023/07/10 14:02:48;;;;;;;6.07;2.00;;;;;;;;;;5039035;28;20183;-74
2023/07/10 14:05:16;;;;;;;5.13;2.10;;;;;;;;;;5056510;28;20176;-77
2023/07/10 14:07:43;;;;;;;5.95;1.92;;;;;;;;;;5038203;28;20269;-77
2023/07/10 14:10:20;;;;;;;5.72;2.00;;;;;;;;;;5022151;28;20302;-77
2023/07/10 14:12:46;;;;;;;6.25;2.30;;;;;;;;;;5056422;28;20179;-77
2023/07/10 14:15:19;;;;;;;6.25;1.92;;;;;;;;;;5038500;28;20192;-77
2023/07/10 14:17:45;;;;;;;7.25;2.05;;;;;;;;;;5038847;28;20172;-77
2023/07/10 14:20:23;;;;;;;3.95;2.00;;;;;;;;;;5056220;28;20172;-74
2023/07/10 14:22:50;;;;;;;5.80;1.77;;;;;;;;;;5038387;28;20186;-74
2023/07/10 14:25:22;;;;;;;7.25;2.00;;;;;;;;;;5039071;28;20176;-74
2023/07/10 14:27:48;;;;;;;4.25;1.90;;;;;;;;;;5039443;28;20187;-75
2023/07/10 14:30:16;;;;;;;4.10;1.67;;;;;;;;;;5056044;28;20261;-75
2023/07/10 14:32:42;;;;;;;6.10;2.00;;;;;;;;;;5055629;28;20175;-75
2023/07/10 14:35:14;;;;;;;5.22;1.83;;;;;;;;;;5021413;28;20172;-75
2023/07/10 14:37:40;;;;;;;4.97;1.90;;;;;;;;;;5037806;28;20207;-78
2023/07/10 14:40:09;;;;;;;4.43;2.10;;;;;;;;;;5038285;28;20227;-78
2023/07/10 14:42:35;;;;;;;5.85;2.10;;;;;;;;;;5037838;28;20182;-78